createdAt,value
2023-04-25T00:00:21.580Z,10.50
2023-04-25T00:03:10.152Z,10.50
2023-04-25T00:05:38.262Z,10.50
2023-04-25T00:08:05.877Z,10.50
2023-04-25T00:10:33.204Z,10.60
2023-04-25T00:13:03.162Z,10.60
2023-04-25T00:15:33.332Z,10.60
2023-04-25T00:18:00.409Z,10.60
2023-04-25T00:20:27.733Z,10.60
2023-04-25T00:22:56.891Z,10.60
2023-04-25T00:25:24.525Z,10.60
2023-04-25T00:27:51.461Z,10.60
2023-04-25T00:30:18.889Z,10.60
2023-04-25T00:32:46.998Z,10.50
2023-04-25T00:35:14.334Z,10.50
2023-04-25T00:37:41.500Z,10.50
2023-04-25T00:40:09.356Z,10.50
2023-04-25T00:42:37.916Z,10.50
2023-04-25T00:45:10.179Z,10.50
2023-04-25T00:47:37.366Z,10.50
2023-04-25T00:50:05.049Z,10.50
2023-04-25T00:52:32.083Z,10.50
2023-04-25T00:55:00.343Z,10.40
2023-04-25T00:57:27.867Z,10.50
2023-04-25T00:59:55.870Z,10.40
2023-04-25T01:02:23.113Z,10.50
2023-04-25T01:04:50.605Z,10.50
2023-04-25T01:07:17.817Z,10.50
2023-04-25T01:09:45.380Z,10.50
2023-04-25T01:12:12.640Z,10.40
2023-04-25T01:14:40.236Z,10.40
2023-04-25T01:17:08.748Z,10.40
2023-04-25T01:19:36.651Z,10.40
2023-04-25T01:22:04.768Z,10.40
2023-04-25T01:24:35.143Z,10.40
2023-04-25T01:27:03.188Z,10.40
2023-04-25T01:29:31.201Z,10.40
2023-04-25T01:31:59.657Z,10.40
2023-04-25T01:34:28.201Z,10.40
2023-04-25T01:36:55.342Z,10.30
2023-04-25T01:41:50.487Z,10.30
2023-04-25T01:44:17.946Z,10.30
2023-04-25T01:46:45.137Z,10.20
2023-04-25T01:49:12.631Z,10.10
2023-04-25T01:51:39.709Z,10.10
2023-04-25T01:54:07.019Z,10.00
2023-04-25T01:56:37.399Z,10.00
2023-04-25T01:59:05.987Z,9.90
2023-04-25T02:01:33.652Z,10.00
2023-04-25T02:04:01.248Z,9.90
2023-04-25T02:06:28.470Z,9.80
2023-04-25T02:08:55.865Z,9.80
2023-04-25T02:11:22.829Z,9.70
2023-04-25T02:13:50.489Z,9.70
2023-04-25T02:16:17.992Z,9.60
2023-04-25T02:18:46.004Z,9.50
2023-04-25T02:21:12.977Z,9.40
2023-04-25T02:23:40.277Z,9.40
2023-04-25T02:26:07.316Z,9.40
2023-04-25T02:28:34.832Z,9.30
2023-04-25T02:31:01.818Z,9.20
2023-04-25T02:33:29.115Z,9.20
2023-04-25T02:35:56.147Z,9.20
2023-04-25T02:38:23.446Z,9.10
2023-04-25T02:40:50.509Z,9.10
2023-04-25T02:43:17.996Z,9.10
2023-04-25T02:45:44.975Z,9.10
2023-04-25T02:48:12.669Z,9.00
2023-04-25T02:50:39.655Z,9.00
2023-04-25T02:53:07.088Z,9.00
2023-04-25T02:55:34.150Z,9.00
2023-04-25T02:58:01.438Z,8.90
2023-04-25T03:00:28.700Z,8.80
2023-04-25T03:02:56.646Z,8.80
2023-04-25T03:05:23.660Z,8.70
2023-04-25T03:07:51.154Z,8.60
2023-04-25T03:10:18.263Z,8.50
2023-04-25T03:12:45.684Z,8.40
2023-04-25T03:15:12.631Z,8.30
2023-04-25T03:17:39.926Z,8.30
2023-04-25T03:20:09.303Z,8.30
2023-04-25T03:22:36.871Z,8.30
2023-04-25T03:25:04.166Z,8.30
2023-04-25T03:27:31.423Z,8.30
2023-04-25T03:29:58.377Z,8.30
2023-04-25T03:32:26.016Z,8.30
2023-04-25T03:34:53.102Z,8.30
2023-04-25T03:37:20.391Z,8.30
2023-04-25T03:39:47.322Z,8.30
2023-04-25T03:42:14.555Z,8.20
2023-04-25T03:44:41.903Z,8.20
2023-04-25T03:47:09.615Z,8.20
2023-04-25T03:49:37.144Z,8.20
2023-04-25T03:52:04.917Z,8.10
2023-04-25T03:54:31.973Z,8.10
2023-04-25T03:56:59.298Z,8.20
2023-04-25T03:59:27.135Z,8.20
2023-04-25T04:01:54.854Z,8.30
2023-04-25T04:04:22.187Z,8.20
2023-04-25T04:06:49.764Z,8.30
2023-04-25T04:09:17.247Z,8.30
2023-04-25T04:11:44.853Z,8.40
2023-04-25T04:14:11.864Z,8.50
2023-04-25T04:16:39.538Z,8.40
2023-04-25T04:19:06.698Z,8.40
2023-04-25T04:21:34.657Z,8.30
2023-04-25T04:24:01.745Z,8.40
2023-04-25T04:26:28.986Z,8.40
2023-04-25T04:28:56.073Z,8.40
2023-04-25T04:31:23.501Z,8.40
2023-04-25T04:33:52.077Z,8.40
2023-04-25T04:36:23.998Z,8.40
2023-04-25T04:38:50.934Z,8.40
2023-04-25T04:41:18.384Z,8.50
2023-04-25T04:43:45.767Z,8.50
2023-04-25T04:46:13.862Z,8.50
2023-04-25T04:51:08.633Z,8.60
2023-04-25T04:53:35.943Z,8.60
2023-04-25T04:56:03.449Z,8.60
2023-04-25T04:58:30.981Z,8.70
2023-04-25T05:00:58.579Z,8.70
2023-04-25T05:03:25.797Z,8.80
2023-04-25T05:05:53.124Z,8.90
2023-04-25T05:08:20.317Z,8.90
2023-04-25T05:10:47.622Z,8.80
2023-04-25T05:13:14.576Z,8.90
2023-04-25T05:15:41.935Z,8.80
2023-04-25T05:18:09.044Z,8.80
2023-04-25T05:20:36.428Z,8.80
2023-04-25T05:23:03.608Z,8.70
2023-04-25T05:25:30.891Z,8.70
2023-04-25T05:27:58.243Z,8.70
2023-04-25T05:30:25.558Z,8.70
2023-04-25T05:32:52.590Z,8.70
2023-04-25T05:35:20.036Z,8.90
2023-04-25T05:37:47.057Z,9.00
2023-04-25T05:40:14.577Z,9.10
2023-04-25T05:42:41.549Z,9.20
2023-04-25T05:45:09.139Z,9.30
2023-04-25T05:47:36.306Z,9.40
2023-04-25T05:50:03.806Z,9.40
2023-04-25T05:52:30.797Z,9.50
2023-04-25T05:54:58.086Z,9.60
2023-04-25T05:57:26.655Z,9.60
2023-04-25T05:59:55.060Z,9.60
2023-04-25T06:02:23.119Z,9.70
2023-04-25T06:04:52.142Z,9.70
2023-04-25T06:07:20.937Z,9.70
2023-04-25T06:09:48.687Z,9.80
2023-04-25T06:12:15.633Z,9.80
2023-04-25T06:14:42.876Z,9.90
2023-04-25T06:17:09.835Z,10.10
2023-04-25T06:19:37.374Z,10.00
2023-04-25T06:24:32.492Z,10.20
2023-04-25T06:26:59.491Z,10.70
2023-04-25T06:29:27.046Z,10.70
2023-04-25T06:31:54.495Z,11.10
2023-04-25T06:34:22.336Z,11.20
2023-04-25T06:36:49.668Z,11.10
2023-04-25T06:39:17.863Z,11.00
2023-04-25T06:41:44.781Z,11.00
2023-04-25T06:44:12.023Z,10.90
2023-04-25T06:46:39.047Z,10.90
2023-04-25T06:49:06.477Z,11.00
2023-04-25T06:51:33.634Z,11.00
2023-04-25T06:54:01.178Z,11.00
2023-04-25T06:56:30.694Z,11.20
2023-04-25T06:58:58.006Z,11.70
2023-04-25T07:01:25.164Z,12.30
2023-04-25T07:03:52.810Z,13.00
2023-04-25T07:06:19.937Z,13.10
2023-04-25T07:08:47.407Z,13.10
2023-04-25T07:11:14.573Z,12.80
2023-04-25T07:13:41.867Z,12.40
2023-04-25T07:16:08.836Z,12.50
2023-04-25T07:18:36.241Z,13.40
2023-04-25T07:21:03.454Z,14.40
2023-04-25T07:23:31.201Z,15.10
2023-04-25T07:25:58.237Z,15.10
2023-04-25T07:28:25.652Z,15.70
2023-04-25T07:30:52.639Z,15.80
2023-04-25T07:33:21.545Z,15.30
2023-04-25T07:35:48.698Z,14.60
2023-04-25T07:38:15.950Z,13.90
2023-04-25T07:40:43.266Z,13.20
2023-04-25T07:43:13.313Z,12.90
2023-04-25T07:45:40.395Z,13.50
2023-04-25T07:48:07.695Z,13.80
2023-04-25T07:50:34.658Z,14.10
2023-04-25T07:53:02.017Z,14.30
2023-04-25T07:55:29.320Z,13.90
2023-04-25T07:57:56.277Z,13.30
2023-04-25T08:00:24.043Z,12.80
2023-04-25T08:02:52.260Z,12.60
2023-04-25T08:05:22.731Z,13.00
2023-04-25T08:07:51.081Z,15.20
2023-04-25T08:10:18.605Z,16.00
2023-04-25T08:12:45.642Z,15.50
2023-04-25T08:15:14.803Z,15.60
2023-04-25T08:17:42.205Z,16.90
2023-04-25T08:20:10.008Z,17.60
2023-04-25T08:22:37.098Z,16.70
2023-04-25T08:25:04.792Z,15.70
2023-04-25T08:27:31.772Z,15.10
2023-04-25T08:29:59.777Z,16.30
2023-04-25T08:32:28.465Z,18.70
2023-04-25T08:34:56.982Z,19.20
2023-04-25T08:37:23.926Z,18.30
2023-04-25T08:39:53.383Z,17.40
2023-04-25T08:42:22.729Z,16.20
2023-04-25T08:44:51.053Z,15.20
2023-04-25T08:47:22.894Z,16.30
2023-04-25T08:49:52.377Z,19.30
2023-04-25T08:52:23.803Z,19.90
2023-04-25T08:54:53.740Z,18.60
2023-04-25T08:57:22.840Z,18.20
2023-04-25T08:59:50.404Z,18.10
2023-04-25T09:02:19.850Z,18.80
2023-04-25T09:04:47.775Z,18.30
2023-04-25T09:07:19.577Z,17.00
2023-04-25T09:09:48.530Z,16.00
2023-04-25T09:12:15.648Z,16.00
2023-04-25T09:14:43.964Z,16.80
2023-04-25T09:17:11.297Z,16.80
2023-04-25T09:19:42.516Z,16.80
2023-04-25T09:22:10.111Z,15.70
2023-04-25T09:24:42.578Z,15.70
2023-04-25T09:27:18.720Z,15.00
2023-04-25T09:29:46.123Z,15.00
2023-04-25T09:32:24.426Z,15.00
2023-04-25T09:34:57.192Z,15.00
2023-04-25T09:37:29.728Z,15.20
2023-04-25T09:40:06.363Z,14.90
2023-04-25T09:42:35.587Z,14.40
2023-04-25T09:45:04.854Z,14.00
2023-04-25T09:47:33.162Z,13.60
2023-04-25T09:50:00.625Z,13.60
2023-04-25T09:52:27.668Z,13.60
2023-04-25T09:54:55.338Z,13.40
2023-04-25T09:57:26.946Z,13.20
2023-04-25T09:59:56.426Z,13.20
2023-04-25T10:02:26.251Z,13.00
2023-04-25T10:04:56.297Z,12.90
2023-04-25T10:07:27.670Z,13.00
2023-04-25T10:10:05.438Z,13.00
2023-04-25T10:12:34.181Z,13.10
2023-04-25T10:15:02.523Z,13.20
2023-04-25T10:17:30.157Z,13.40
2023-04-25T10:19:57.859Z,13.60
2023-04-25T10:22:34.068Z,13.50
2023-04-25T10:25:04.958Z,13.30
2023-04-25T10:27:32.793Z,13.00
2023-04-25T10:30:13.575Z,12.80
2023-04-25T10:32:40.666Z,12.60
2023-04-25T10:35:19.382Z,12.50
2023-04-25T10:38:08.323Z,12.30
2023-04-25T10:40:35.969Z,12.30
2023-04-25T10:43:36.377Z,12.20
2023-04-25T10:46:16.596Z,12.10
2023-04-25T10:48:50.770Z,12.20
2023-04-25T10:51:53.928Z,12.40
2023-04-25T10:54:26.136Z,12.50
2023-04-25T10:56:54.346Z,12.50
2023-04-25T10:59:26.022Z,12.50
2023-04-25T11:01:56.148Z,12.60
2023-04-25T11:04:35.802Z,12.60
2023-04-25T11:07:09.305Z,12.90
2023-04-25T11:09:36.899Z,12.90
2023-04-25T11:12:04.387Z,13.20
2023-04-25T11:14:31.506Z,13.20
2023-04-25T11:17:00.717Z,13.40
2023-04-25T11:19:29.357Z,13.40
2023-04-25T11:22:01.284Z,13.60
2023-04-25T11:24:32.581Z,13.60
2023-04-25T11:27:03.230Z,13.30
2023-04-25T11:29:32.138Z,13.30
2023-04-25T11:32:00.992Z,12.80
2023-04-25T11:34:31.736Z,12.80
2023-04-25T11:37:00.859Z,12.50
2023-04-25T11:39:28.993Z,12.50
2023-04-25T11:41:56.972Z,12.50
2023-04-25T11:44:24.460Z,12.50
2023-04-25T11:46:52.055Z,12.50
2023-04-25T11:49:19.441Z,12.50
2023-04-25T11:51:48.841Z,12.60
2023-04-25T11:54:16.462Z,12.60
2023-04-25T11:56:45.455Z,12.70
2023-04-25T11:59:13.989Z,13.00
2023-04-25T12:01:48.699Z,13.20
2023-04-25T12:04:24.148Z,13.50
2023-04-25T12:06:56.515Z,13.70
2023-04-25T12:09:34.628Z,13.70
2023-04-25T12:12:05.370Z,13.00
2023-04-25T12:14:36.777Z,13.10
2023-04-25T12:17:06.481Z,12.80
2023-04-25T12:19:35.309Z,12.70
2023-04-25T12:22:04.237Z,12.70
2023-04-25T12:24:37.097Z,12.70
2023-04-25T12:27:09.282Z,12.90
2023-04-25T12:32:07.210Z,12.80
2023-04-25T12:34:36.735Z,12.80
2023-04-25T12:37:04.386Z,13.00
2023-04-25T12:39:31.612Z,13.00
2023-04-25T12:42:00.165Z,13.60
2023-04-25T12:44:27.140Z,13.60
2023-04-25T12:46:55.639Z,14.20
2023-04-25T12:49:23.369Z,14.20
2023-04-25T12:51:52.535Z,14.40
2023-04-25T12:54:19.827Z,14.30
2023-04-25T12:56:47.363Z,14.10
2023-04-25T12:59:14.402Z,14.10
2023-04-25T13:01:41.877Z,14.00
2023-04-25T13:04:08.959Z,14.00
2023-04-25T13:06:36.480Z,14.00
2023-04-25T13:09:04.460Z,13.90
2023-04-25T13:11:32.479Z,13.70
2023-04-25T13:13:59.629Z,13.20
2023-04-25T13:16:26.978Z,12.80
2023-04-25T13:18:53.944Z,12.60
2023-04-25T13:21:21.222Z,12.60
2023-04-25T13:23:49.732Z,12.50
2023-04-25T13:26:17.845Z,12.40
2023-04-25T13:28:45.250Z,12.40
2023-04-25T13:31:12.625Z,12.40
2023-04-25T13:33:39.672Z,12.50
2023-04-25T13:36:07.153Z,12.50
2023-04-25T13:38:34.253Z,12.60
2023-04-25T13:41:02.062Z,12.60
2023-04-25T13:43:29.087Z,12.70
2023-04-25T13:45:56.621Z,12.80
2023-04-25T13:48:25.041Z,12.80
2023-04-25T13:50:52.307Z,12.80
2023-04-25T13:53:19.310Z,12.80
2023-04-25T13:55:47.244Z,12.80
2023-04-25T13:58:14.610Z,12.80
2023-04-25T14:00:44.787Z,12.80
2023-04-25T14:03:12.200Z,12.90
2023-04-25T14:05:40.154Z,13.00
2023-04-25T14:08:08.974Z,13.10
2023-04-25T14:10:37.323Z,13.00
2023-04-25T14:13:05.703Z,13.00
2023-04-25T14:15:33.988Z,12.90
2023-04-25T14:18:01.839Z,12.90
2023-04-25T14:20:29.700Z,12.80
2023-04-25T14:22:58.194Z,12.80
2023-04-25T14:25:26.545Z,12.80
2023-04-25T14:27:53.749Z,12.80
2023-04-25T14:30:22.262Z,12.70
2023-04-25T14:32:51.040Z,12.60
2023-04-25T14:35:18.832Z,12.60
2023-04-25T14:37:46.037Z,12.60
2023-04-25T14:40:16.281Z,12.70
2023-04-25T14:42:43.768Z,12.60
2023-04-25T14:45:11.853Z,12.60
2023-04-25T14:47:39.087Z,12.50
2023-04-25T14:50:08.087Z,12.40
2023-04-25T14:52:36.450Z,12.30
2023-04-25T14:55:08.413Z,12.30
2023-04-25T14:57:36.394Z,12.10
2023-04-25T15:00:07.893Z,12.10
2023-04-25T15:02:35.780Z,12.10
2023-04-25T15:05:05.426Z,12.00
2023-04-25T15:07:32.586Z,12.00
2023-04-25T15:10:00.341Z,12.10
2023-04-25T15:12:29.261Z,12.20
2023-04-25T15:14:56.846Z,12.20
2023-04-25T15:17:24.520Z,12.10
2023-04-25T15:19:52.460Z,12.20
2023-04-25T15:22:19.458Z,12.00
2023-04-25T15:24:46.941Z,12.00
2023-04-25T15:27:14.767Z,12.00
2023-04-25T15:29:42.678Z,12.00
2023-04-25T15:32:09.792Z,12.10
2023-04-25T15:34:37.141Z,12.10
2023-04-25T15:37:04.184Z,12.00
2023-04-25T15:39:32.286Z,12.00
2023-04-25T15:41:59.323Z,11.90
2023-04-25T15:44:26.703Z,12.00
2023-04-25T15:46:55.165Z,11.90
2023-04-25T15:49:23.033Z,11.90
2023-04-25T15:51:50.454Z,12.00
2023-04-25T15:54:18.681Z,11.90
2023-04-25T15:56:45.944Z,11.90
2023-04-25T15:59:13.919Z,11.90
2023-04-25T16:01:41.024Z,11.80
2023-04-25T16:04:08.479Z,11.80
2023-04-25T16:06:35.794Z,11.80
2023-04-25T16:09:03.934Z,11.70
2023-04-25T16:11:31.090Z,11.60
2023-04-25T16:13:58.411Z,11.60
2023-04-25T16:16:26.447Z,11.50
2023-04-25T16:18:53.884Z,11.50
2023-04-25T16:21:21.301Z,11.40
2023-04-25T16:23:48.753Z,11.30
2023-04-25T16:26:16.060Z,11.20
2023-04-25T16:28:43.348Z,11.10
2023-04-25T16:31:10.538Z,11.10
2023-04-25T16:33:37.951Z,11.10
2023-04-25T16:36:05.311Z,11.10
2023-04-25T16:38:32.689Z,11.10
2023-04-25T16:40:59.760Z,11.10
2023-04-25T16:43:26.964Z,11.10
2023-04-25T16:45:54.165Z,11.10
2023-04-25T16:48:24.323Z,11.00
2023-04-25T16:50:52.911Z,10.90
2023-04-25T16:53:22.042Z,10.90
2023-04-25T16:55:49.186Z,10.90
2023-04-25T16:58:16.703Z,10.80
2023-04-25T17:00:44.146Z,10.80
2023-04-25T17:03:11.906Z,10.70
2023-04-25T17:05:39.351Z,10.80
2023-04-25T17:08:06.808Z,10.70
2023-04-25T17:10:33.921Z,10.70
2023-04-25T17:13:01.627Z,10.60
2023-04-25T17:15:28.669Z,10.60
2023-04-25T17:17:55.994Z,10.50
2023-04-25T17:20:23.087Z,10.50
2023-04-25T17:22:50.645Z,10.30
2023-04-25T17:25:17.831Z,10.30
2023-04-25T17:27:45.100Z,10.10
2023-04-25T17:30:12.779Z,10.00
2023-04-25T17:32:40.188Z,10.00
2023-04-25T17:35:07.632Z,9.90
2023-04-25T17:37:35.325Z,9.90
2023-04-25T17:40:03.824Z,9.80
2023-04-25T17:42:31.498Z,9.80
2023-04-25T17:44:58.564Z,9.70
2023-04-25T17:47:25.911Z,9.70
2023-04-25T17:49:53.090Z,9.70
2023-04-25T17:52:20.626Z,9.60
2023-04-25T17:54:49.621Z,9.60
2023-04-25T17:57:17.706Z,9.60
2023-04-25T17:59:44.716Z,9.60
2023-04-25T18:02:12.355Z,9.50
2023-04-25T18:04:40.158Z,9.50
2023-04-25T18:07:07.528Z,9.50
2023-04-25T18:09:35.116Z,9.50
2023-04-25T18:12:04.049Z,9.50
2023-04-25T18:14:31.702Z,9.50
2023-04-25T18:17:00.137Z,9.40
2023-04-25T18:19:27.191Z,9.40
2023-04-25T18:21:56.084Z,9.30
2023-04-25T18:24:26.960Z,9.30
2023-04-25T18:26:55.941Z,9.30
2023-04-25T18:29:32.941Z,9.30
2023-04-25T18:32:02.307Z,9.20
2023-04-25T18:34:29.427Z,9.20
2023-04-25T18:36:56.958Z,9.20
2023-04-25T18:39:27.255Z,9.20
2023-04-25T18:42:01.384Z,9.10
2023-04-25T18:44:33.728Z,9.10
2023-04-25T18:47:01.116Z,9.10
2023-04-25T18:49:28.174Z,9.10
2023-04-25T18:51:57.527Z,9.10
2023-04-25T18:54:24.546Z,9.10
2023-04-25T18:56:52.109Z,9.00
2023-04-25T18:59:19.481Z,9.00
2023-04-25T19:01:47.194Z,8.90
2023-04-25T19:04:14.627Z,8.90
2023-04-25T19:06:42.541Z,8.90
2023-04-25T19:09:10.275Z,8.90
2023-04-25T19:11:38.339Z,8.90
2023-04-25T19:14:05.404Z,8.80
2023-04-25T19:16:38.795Z,8.90
2023-04-25T19:19:07.307Z,8.80
2023-04-25T19:21:35.593Z,8.80
2023-04-25T19:24:06.967Z,8.70
2023-04-25T19:26:34.564Z,8.70
2023-04-25T19:29:09.650Z,8.70
2023-04-25T19:31:38.200Z,8.70
2023-04-25T19:34:07.606Z,8.70
2023-04-25T19:36:37.064Z,8.70
2023-04-25T19:39:04.626Z,8.70
2023-04-25T19:41:33.659Z,8.70
2023-04-25T19:44:01.279Z,8.70
2023-04-25T19:46:28.903Z,8.70
2023-04-25T19:48:55.911Z,8.60
2023-04-25T19:51:23.177Z,8.60
2023-04-25T19:53:50.961Z,8.60
2023-04-25T19:56:18.661Z,8.50
2023-04-25T19:58:45.764Z,8.50
2023-04-25T20:01:14.293Z,8.50
2023-04-25T20:03:41.503Z,8.40
2023-04-25T20:06:10.167Z,8.40
2023-04-25T20:08:37.327Z,8.20
2023-04-25T20:11:04.707Z,8.10
2023-04-25T20:13:31.816Z,7.80
2023-04-25T20:16:02.487Z,7.60
2023-04-25T20:18:29.705Z,7.60
2023-04-25T20:20:57.049Z,7.60
2023-04-25T20:23:24.099Z,7.70
2023-04-25T20:25:51.909Z,7.80
2023-04-25T20:28:19.007Z,7.80
2023-04-25T20:30:46.577Z,7.90
2023-04-25T20:33:13.758Z,7.90
2023-04-25T20:35:41.341Z,7.90
2023-04-25T20:38:08.332Z,7.90
2023-04-25T20:40:35.835Z,8.00
2023-04-25T20:43:05.188Z,7.90
2023-04-25T20:45:34.672Z,7.90
2023-04-25T20:48:02.782Z,7.90
2023-04-25T20:50:31.693Z,7.90
2023-04-25T20:52:59.155Z,7.80
2023-04-25T20:55:27.096Z,7.80
2023-04-25T20:57:54.111Z,7.70
2023-04-25T21:00:26.892Z,7.70
2023-04-25T21:02:54.587Z,7.60
2023-04-25T21:05:22.699Z,7.60
2023-04-25T21:07:50.479Z,7.60
2023-04-25T21:10:18.474Z,7.50
2023-04-25T21:12:49.121Z,7.50
2023-04-25T21:15:22.749Z,7.50
2023-04-25T21:17:51.184Z,7.50
2023-04-25T21:20:20.430Z,7.50
2023-04-25T21:22:50.965Z,7.50
2023-04-25T21:25:29.428Z,7.50
2023-04-25T21:27:56.788Z,7.60
2023-04-25T21:30:25.239Z,7.60
2023-04-25T21:32:52.835Z,7.60
2023-04-25T21:35:21.375Z,7.60
2023-04-25T21:37:48.635Z,7.60
2023-04-25T21:40:15.965Z,7.60
2023-04-25T21:42:44.649Z,7.50
2023-04-25T21:45:12.338Z,7.60
2023-04-25T21:47:39.483Z,7.50
2023-04-25T21:50:07.866Z,7.50
2023-04-25T21:52:36.419Z,7.50
2023-04-25T21:55:03.843Z,7.40
2023-04-25T21:57:30.871Z,7.30
2023-04-25T21:59:59.114Z,7.20
2023-04-25T22:02:27.419Z,7.10
2023-04-25T22:04:54.903Z,7.10
2023-04-25T22:07:22.002Z,6.90
2023-04-25T22:09:55.031Z,6.90
2023-04-25T22:12:23.516Z,6.80
2023-04-25T22:14:51.146Z,6.80
2023-04-25T22:17:18.812Z,6.60
2023-04-25T22:19:47.030Z,6.60
2023-04-25T22:22:14.285Z,6.40
2023-04-25T22:24:42.371Z,6.40
2023-04-25T22:27:12.743Z,6.30
2023-04-25T22:29:40.379Z,6.20
2023-04-25T22:32:07.606Z,6.10
2023-04-25T22:34:34.823Z,6.00
2023-04-25T22:37:02.116Z,6.00
2023-04-25T22:39:29.702Z,5.90
2023-04-25T22:41:56.785Z,5.80
2023-04-25T22:44:24.063Z,5.70
2023-04-25T22:46:53.119Z,5.60
2023-04-25T22:49:20.762Z,5.60
2023-04-25T22:51:53.990Z,5.50
2023-04-25T22:54:21.801Z,5.50
2023-04-25T22:56:48.818Z,5.40
2023-04-25T22:59:16.264Z,5.30
2023-04-25T23:01:43.798Z,5.30
2023-04-25T23:04:11.751Z,5.20
2023-04-25T23:06:40.330Z,5.10
2023-04-25T23:09:09.806Z,5.00
2023-04-25T23:11:37.358Z,5.00
2023-04-25T23:14:05.441Z,5.00
2023-04-25T23:16:32.367Z,4.90
2023-04-25T23:18:59.780Z,4.80
2023-04-25T23:21:26.852Z,4.80
2023-04-25T23:23:54.481Z,4.70
2023-04-25T23:26:21.957Z,4.60
2023-04-25T23:28:49.260Z,4.60
2023-04-25T23:31:16.465Z,4.50
2023-04-25T23:33:43.755Z,4.70
2023-04-25T23:36:19.949Z,4.50
2023-04-25T23:38:48.189Z,4.50
2023-04-25T23:41:15.187Z,4.40
2023-04-25T23:43:42.436Z,4.40
2023-04-25T23:46:09.614Z,4.40
2023-04-25T23:48:36.900Z,4.30
2023-04-25T23:51:03.955Z,4.30
2023-04-25T23:53:31.300Z,4.30
2023-04-25T23:55:58.216Z,4.30
2023-04-25T23:58:25.731Z,4.20
